Time;durP1;ratioP1;P1;durP2;ratioP2;P2;SDS_P1;SDS_P2;PMS_P1;PMS_P2;Temp;Humidity;BMP_temperature;BMP_pressure;BME280_temperature;BME280_humidity;BME280_pressure;Samples;Min_cycle;Max_cycle;Signal;HPM_P1;HPM_P2
2021/11/16 00:01:54;;;;;;;31.10;19.67;;;13.50;56.80;;;;;;5012153;28;20425;-48
2021/11/16 00:04:20;;;;;;;28.33;19.60;;;13.50;56.80;;;;;;5012905;28;20301;-48
2021/11/16 00:06:51;;;;;;;34.00;20.40;;;13.50;56.80;;;;;;5012741;28;20653;-46
2021/11/16 00:09:17;;;;;;;30.87;20.50;;;13.50;56.70;;;;;;5012597;28;20265;-47
2021/11/16 00:11:43;;;;;;;29.10;21.00;;;13.50;56.50;;;;;;5012042;28;20421;-48
2021/11/16 00:14:09;;;;;;;29.43;18.93;;;13.50;57.00;;;;;;5012758;28;20193;-46
2021/11/16 00:16:37;;;;;;;28.20;19.10;;;13.50;56.30;;;;;;5012220;28;20213;-48
2021/11/16 00:19:06;;;;;;;30.37;18.63;;;13.50;56.40;;;;;;5012781;28;20873;-46
2021/11/16 00:21:32;;;;;;;30.50;19.43;;;13.50;56.30;;;;;;5010325;28;20818;-46
2021/11/16 00:24:00;;;;;;;32.03;21.53;;;13.40;56.30;;;;;;5011919;28;20481;-47
2021/11/16 00:26:26;;;;;;;38.47;22.30;;;13.40;56.30;;;;;;5011949;28;20649;-47
2021/11/16 00:28:52;;;;;;;33.27;21.30;;;13.40;56.50;;;;;;5012414;28;20436;-47
2021/11/16 00:31:19;;;;;;;30.17;20.10;;;13.40;56.80;;;;;;5011666;28;20441;-49
2021/11/16 00:33:45;;;;;;;33.67;20.50;;;13.40;56.90;;;;;;5012488;28;20429;-46
2021/11/16 00:36:10;;;;;;;30.00;19.37;;;13.40;56.90;;;;;;5011929;28;20513;-50
2021/11/16 00:38:37;;;;;;;29.57;18.73;;;13.40;56.80;;;;;;5012107;28;20519;-50
2021/11/16 00:41:03;;;;;;;29.70;19.03;;;13.40;56.80;;;;;;5011621;28;20275;-46
2021/11/16 00:43:29;;;;;;;29.20;17.83;;;13.40;56.60;;;;;;5012378;28;20495;-51
2021/11/16 00:45:56;;;;;;;30.70;20.43;;;13.30;56.70;;;;;;5011772;28;20800;-50
2021/11/16 00:48:23;;;;;;;29.87;19.40;;;13.30;56.90;;;;;;5010500;28;20206;-47
2021/11/16 00:50:52;;;;;;;30.17;20.07;;;13.30;56.90;;;;;;5010883;28;20429;-46
2021/11/16 00:53:19;;;;;;;34.40;19.53;;;13.40;56.90;;;;;;5012596;28;20437;-49
2021/11/16 00:55:45;;;;;;;30.60;21.30;;;13.40;56.80;;;;;;5011438;28;20980;-45
2021/11/16 00:58:11;;;;;;;32.97;19.97;;;13.40;56.70;;;;;;5011843;28;20429;-50
2021/11/16 01:00:36;;;;;;;26.33;19.50;;;13.40;56.60;;;;;;5011290;28;20904;-49
2021/11/16 01:03:03;;;;;;;28.37;18.90;;;13.50;56.80;;;;;;5012000;28;20226;-46
2021/11/16 01:05:28;;;;;;;26.60;18.77;;;13.40;56.70;;;;;;5011405;28;20198;-47
2021/11/16 01:07:54;;;;;;;27.50;18.77;;;13.40;56.60;;;;;;5011715;28;20899;-49
2021/11/16 01:10:22;;;;;;;30.37;19.00;;;13.40;56.60;;;;;;5010953;28;20526;-46
2021/11/16 01:12:47;;;;;;;36.63;21.20;;;13.40;56.70;;;;;;5011740;28;20198;-50
2021/11/16 01:15:15;;;;;;;30.63;20.97;;;13.50;56.80;;;;;;5009673;28;20854;-46
2021/11/16 01:17:43;;;;;;;33.20;19.23;;;13.50;56.80;;;;;;5011598;28;20206;-49
2021/11/16 01:20:10;;;;;;;35.77;21.17;;;13.50;56.80;;;;;;5011483;28;20432;-46
2021/11/16 01:22:37;;;;;;;32.53;21.03;;;13.50;56.80;;;;;;4993650;28;20826;-47
2021/11/16 01:25:05;;;;;;;28.80;18.57;;;13.50;56.80;;;;;;5011881;28;20512;-46
2021/11/16 01:27:34;;;;;;;28.70;18.83;;;13.50;56.80;;;;;;5011094;28;20425;-46
2021/11/16 01:30:01;;;;;;;30.93;19.60;;;13.50;56.90;;;;;;5011195;28;20487;-45
2021/11/16 01:32:36;;;;;;;34.40;19.70;;;13.50;57.10;;;;;;5010656;28;20433;-49
2021/11/16 01:35:05;;;;;;;32.40;20.70;;;13.50;57.00;;;;;;5011778;28;20942;-47
2021/11/16 01:37:31;;;;;;;31.60;19.17;;;13.50;56.90;;;;;;5011017;28;20466;-51
2021/11/16 01:39:57;;;;;;;28.47;19.03;;;13.50;56.80;;;;;;5010695;28;20429;-50
2021/11/16 01:42:23;;;;;;;28.80;19.20;;;13.50;56.80;;;;;;5009140;28;20425;-49
2021/11/16 01:44:50;;;;;;;31.80;20.60;;;13.50;56.90;;;;;;5011293;28;20194;-50
2021/11/16 01:47:16;;;;;;;25.43;17.80;;;13.50;57.00;;;;;;5010787;28;20452;-50
2021/11/16 01:49:42;;;;;;;33.40;21.23;;;13.50;57.00;;;;;;5011084;28;20903;-49
2021/11/16 01:52:08;;;;;;;29.77;18.70;;;13.50;57.20;;;;;;5010878;28;20225;-50
2021/11/16 01:54:35;;;;;;;33.23;19.03;;;13.50;57.40;;;;;;5011491;28;20421;-50
2021/11/16 01:57:01;;;;;;;27.00;19.10;;;13.50;57.40;;;;;;4993057;28;20490;-49
2021/11/16 01:59:27;;;;;;;27.33;19.20;;;13.50;57.30;;;;;;5011214;28;20428;-49
2021/11/16 02:01:55;;;;;;;33.40;18.43;;;13.40;57.20;;;;;;5010249;28;20201;-47
2021/11/16 02:04:22;;;;;;;34.93;19.10;;;13.40;57.40;;;;;;5010892;28;20476;-47
2021/11/16 02:06:48;;;;;;;31.33;18.40;;;13.40;57.40;;;;;;5010099;28;20521;-48
2021/11/16 02:09:16;;;;;;;30.70;20.17;;;13.40;57.40;;;;;;5009486;28;20844;-48
2021/11/16 02:11:42;;;;;;;31.60;19.93;;;13.40;57.50;;;;;;5009974;28;21005;-48
2021/11/16 02:14:10;;;;;;;25.40;19.40;;;13.40;57.60;;;;;;5011044;28;20469;-46
2021/11/16 02:16:37;;;;;;;26.90;19.10;;;13.40;57.70;;;;;;5010452;28;20886;-50
2021/11/16 02:19:05;;;;;;;28.60;18.87;;;13.50;57.70;;;;;;5010786;28;20460;-48
2021/11/16 02:21:31;;;;;;;36.17;21.60;;;13.40;57.60;;;;;;5010263;28;20936;-50
2021/11/16 02:23:57;;;;;;;27.47;19.10;;;13.40;57.60;;;;;;5010907;28;20872;-46
2021/11/16 02:26:23;;;;;;;32.70;20.23;;;13.40;57.50;;;;;;5010170;28;20432;-47
2021/11/16 02:28:49;;;;;;;29.70;20.00;;;13.40;57.60;;;;;;5010898;28;20421;-50
2021/11/16 02:31:16;;;;;;;32.57;19.43;;;13.40;57.70;;;;;;5009914;28;20429;-47
2021/11/16 02:33:43;;;;;;;28.70;18.87;;;13.30;57.80;;;;;;5009151;28;20933;-49
2021/11/16 02:36:09;;;;;;;34.50;19.87;;;13.30;58.00;;;;;;4992376;28;20437;-47
2021/11/16 02:38:37;;;;;;;31.63;19.60;;;13.30;58.00;;;;;;5010835;28;20429;-47
2021/11/16 02:41:04;;;;;;;35.77;19.33;;;13.30;57.90;;;;;;5010107;28;20788;-46
2021/11/16 02:43:32;;;;;;;33.90;19.17;;;13.30;57.80;;;;;;5010815;28;20555;-50
2021/11/16 02:45:58;;;;;;;32.80;18.47;;;13.40;57.90;;;;;;5007976;28;20449;-45
2021/11/16 02:48:24;;;;;;;28.73;18.97;;;13.30;57.70;;;;;;5012487;28;20859;-49
2021/11/16 02:50:55;;;;;;;31.60;19.43;;;13.30;57.70;;;;;;5013436;28;20198;-50
2021/11/16 02:53:21;;;;;;;28.27;18.47;;;13.30;57.60;;;;;;5014042;28;20512;-51
2021/11/16 02:55:47;;;;;;;26.63;18.33;;;13.30;57.70;;;;;;4996011;28;20524;-51
2021/11/16 02:58:14;;;;;;;33.03;18.30;;;13.30;57.90;;;;;;5014332;28;20511;-51
2021/11/16 03:00:44;;;;;;;27.50;17.63;;;13.30;58.00;;;;;;5011776;28;20193;-47
2021/11/16 03:03:10;;;;;;;27.37;17.60;;;13.30;58.00;;;;;;5013998;28;20484;-48
2021/11/16 03:05:36;;;;;;;28.23;18.00;;;13.30;58.30;;;;;;5013674;28;20436;-46
2021/11/16 03:08:11;;;;;;;25.03;18.80;;;13.20;57.60;;;;;;5014021;28;20235;-46
2021/11/16 03:10:37;;;;;;;27.80;19.30;;;13.20;57.60;;;;;;5012983;28;20680;-46
2021/11/16 03:13:03;;;;;;;30.17;18.80;;;13.20;57.70;;;;;;5014147;28;20417;-46
2021/11/16 03:15:28;;;;;;;27.67;18.10;;;13.20;57.70;;;;;;5013303;28;20279;-47
2021/11/16 03:17:54;;;;;;;33.20;19.17;;;13.20;57.90;;;;;;5014030;28;20229;-49
2021/11/16 03:20:20;;;;;;;28.57;18.40;;;13.20;57.90;;;;;;5013130;28;20704;-50
2021/11/16 03:22:55;;;;;;;28.43;19.57;;;13.20;57.90;;;;;;5013579;28;20235;-47
2021/11/16 03:25:31;;;;;;;34.27;19.93;;;13.20;58.70;;;;;;5013306;28;20519;-51
2021/11/16 03:28:01;;;;;;;29.63;19.50;;;13.20;58.30;;;;;;5012372;28;20479;-47
2021/11/16 03:30:29;;;;;;;33.63;19.40;;;13.20;58.50;;;;;;5012665;28;20425;-46
2021/11/16 03:32:55;;;;;;;30.70;19.00;;;13.20;58.40;;;;;;5013454;28;20955;-46
2021/11/16 03:35:21;;;;;;;29.20;18.30;;;13.20;58.40;;;;;;5012863;28;20495;-46
2021/11/16 03:37:50;;;;;;;26.90;17.70;;;13.20;58.40;;;;;;5012369;28;20920;-49
2021/11/16 03:40:16;;;;;;;28.30;18.43;;;13.20;58.40;;;;;;5012445;28;20202;-48
2021/11/16 03:42:45;;;;;;;28.00;18.50;;;13.20;58.50;;;;;;5013285;28;20468;-46
2021/11/16 03:45:13;;;;;;;29.80;19.00;;;13.20;58.70;;;;;;5013357;28;20465;-48
2021/11/16 03:47:39;;;;;;;30.47;19.57;;;13.20;58.70;;;;;;5013190;28;20774;-46
2021/11/16 03:50:14;;;;;;;28.30;17.70;;;13.20;58.60;;;;;;5013243;28;20479;-45
2021/11/16 03:52:42;;;;;;;29.37;18.43;;;13.20;58.50;;;;;;5012883;28;20201;-47
2021/11/16 03:55:09;;;;;;;26.83;17.80;;;13.20;58.60;;;;;;5011594;28;20430;-48
2021/11/16 03:57:35;;;;;;;30.17;18.33;;;13.20;58.50;;;;;;5012810;28;20563;-46
2021/11/16 04:00:10;;;;;;;30.17;18.40;;;13.20;58.50;;;;;;5011563;28;20519;-47
2021/11/16 04:02:35;;;;;;;29.43;19.27;;;13.10;58.50;;;;;;5012852;28;20213;-47
2021/11/16 04:05:03;;;;;;;26.93;19.63;;;13.10;58.70;;;;;;5013197;28;20425;-48
2021/11/16 04:07:30;;;;;;;28.27;18.47;;;13.10;58.90;;;;;;5012563;28;20194;-46
2021/11/16 04:09:55;;;;;;;25.50;17.60;;;13.10;58.90;;;;;;5012767;28;20467;-46
2021/11/16 04:12:21;;;;;;;31.43;18.67;;;13.10;58.70;;;;;;5012097;28;20483;-46
2021/11/16 04:14:46;;;;;;;28.60;18.30;;;13.10;58.50;;;;;;5012804;28;20221;-46
2021/11/16 04:17:12;;;;;;;28.53;18.80;;;13.10;58.30;;;;;;5012245;28;20213;-47
2021/11/16 04:19:38;;;;;;;29.30;18.23;;;13.10;58.30;;;;;;5012461;28;20678;-47
2021/11/16 04:22:05;;;;;;;27.40;18.37;;;13.10;58.20;;;;;;5010650;28;20425;-46
2021/11/16 04:24:30;;;;;;;28.03;17.07;;;13.10;58.30;;;;;;5012654;28;20217;-48
2021/11/16 04:26:56;;;;;;;26.40;16.30;;;13.10;58.40;;;;;;5012178;28;20490;-46
2021/11/16 04:29:22;;;;;;;26.57;18.17;;;13.10;58.40;;;;;;5012229;28;20209;-47
2021/11/16 04:31:48;;;;;;;29.63;18.60;;;13.00;58.60;;;;;;5010667;28;20539;-47
2021/11/16 04:34:13;;;;;;;27.47;18.23;;;13.10;58.70;;;;;;5012266;28;20202;-47
2021/11/16 04:36:39;;;;;;;24.20;16.37;;;13.10;58.60;;;;;;5011911;28;20190;-46
2021/11/16 04:39:07;;;;;;;29.20;18.60;;;13.10;58.60;;;;;;5012581;28;20558;-46
2021/11/16 04:41:34;;;;;;;28.03;19.07;;;13.10;58.50;;;;;;4994036;28;20559;-50
2021/11/16 04:44:02;;;;;;;22.13;16.50;;;13.10;58.60;;;;;;5012598;28;20484;-49
2021/11/16 04:46:28;;;;;;;28.33;18.50;;;13.10;58.70;;;;;;5010258;28;20437;-48
2021/11/16 04:59:41;;;;;;;27.87;19.70;;;12.60;59.80;;;;;;5011820;28;20484;-46
2021/11/16 05:04:52;;;;;;;27.53;18.50;;;12.70;60.40;;;;;;5011817;28;20532;-50
2021/11/16 05:07:20;;;;;;;32.80;20.57;;;12.70;60.30;;;;;;5011450;28;20475;-48
2021/11/16 05:09:55;;;;;;;29.57;18.60;;;12.60;60.40;;;;;;4993612;28;20472;-50
2021/11/16 05:12:23;;;;;;;30.50;18.40;;;12.60;60.80;;;;;;5011001;28;20515;-49
2021/11/16 05:14:50;;;;;;;31.47;20.60;;;12.70;60.50;;;;;;5010029;28;20429;-46
2021/11/16 05:17:16;;;;;;;26.67;19.23;;;12.70;60.30;;;;;;5011180;28;20440;-48
2021/11/16 05:19:42;;;;;;;24.27;17.33;;;12.70;60.20;;;;;;5011277;28;20427;-50
2021/11/16 05:22:08;;;;;;;24.60;16.80;;;12.70;59.90;;;;;;5011125;28;20794;-47
2021/11/16 05:24:34;;;;;;;30.23;18.87;;;12.50;59.80;;;;;;5012001;28;20239;-48
2021/11/16 05:27:00;;;;;;;25.10;17.40;;;12.50;60.00;;;;;;5009872;28;20218;-46
2021/11/16 05:29:25;;;;;;;27.27;17.70;;;12.60;59.90;;;;;;5011116;28;20223;-51
2021/11/16 05:31:51;;;;;;;25.03;17.30;;;12.60;59.70;;;;;;4993503;28;20433;-47
2021/11/16 05:34:17;;;;;;;25.13;17.53;;;12.60;59.60;;;;;;5011858;28;20185;-46
2021/11/16 05:36:43;;;;;;;29.10;18.43;;;12.60;59.70;;;;;;5010975;28;20194;-47
2021/11/16 05:39:09;;;;;;;26.63;16.97;;;12.70;59.70;;;;;;5011355;28;20204;-46
2021/11/16 05:41:36;;;;;;;32.23;18.60;;;12.80;59.70;;;;;;4991328;28;20447;-48
2021/11/16 05:44:01;;;;;;;25.67;17.90;;;12.70;59.60;;;;;;5011259;28;20551;-47
2021/11/16 05:46:27;;;;;;;28.60;18.30;;;12.70;59.60;;;;;;5010602;28;20428;-47
2021/11/16 05:48:54;;;;;;;27.30;19.63;;;12.70;60.30;;;;;;5011131;28;20256;-48
2021/11/16 05:51:23;;;;;;;30.47;18.07;;;12.70;59.70;;;;;;5010211;28;20193;-47
2021/11/16 05:53:58;;;;;;;28.67;18.17;;;12.70;59.70;;;;;;5010867;28;20963;-50
2021/11/16 05:56:26;;;;;;;28.30;18.57;;;12.70;59.70;;;;;;5009381;28;20447;-46
2021/11/16 05:58:53;;;;;;;28.87;18.70;;;12.80;59.70;;;;;;5011147;28;20425;-50
2021/11/16 06:01:23;;;;;;;27.10;16.43;;;12.80;59.70;;;;;;5010478;28;20429;-47
2021/11/16 06:03:52;;;;;;;28.43;17.90;;;12.80;59.50;;;;;;5010928;28;20496;-47
2021/11/16 06:06:23;;;;;;;32.47;19.53;;;12.80;59.60;;;;;;4992613;28;20432;-46
2021/11/16 06:08:50;;;;;;;25.30;17.40;;;12.80;59.70;;;;;;5009187;28;20487;-47
2021/11/16 06:11:17;;;;;;;30.63;18.60;;;12.70;59.80;;;;;;5009980;28;20468;-46
2021/11/16 06:13:44;;;;;;;26.93;17.73;;;12.70;59.90;;;;;;5010950;28;20440;-47
2021/11/16 06:16:10;;;;;;;28.47;18.60;;;12.70;59.70;;;;;;5010290;28;20440;-48
2021/11/16 06:18:36;;;;;;;28.77;18.17;;;12.70;59.50;;;;;;5010980;28;20421;-46
2021/11/16 06:21:02;;;;;;;28.73;19.13;;;12.80;59.50;;;;;;5010032;28;20504;-49
2021/11/16 06:23:27;;;;;;;33.83;20.30;;;12.80;59.40;;;;;;5013135;28;20581;-50
2021/11/16 06:25:53;;;;;;;30.63;19.40;;;12.80;59.50;;;;;;5014245;28;20432;-46
2021/11/16 06:28:19;;;;;;;28.80;18.73;;;12.80;59.60;;;;;;5012630;28;20277;-47
2021/11/16 06:30:44;;;;;;;29.30;19.20;;;12.80;59.60;;;;;;5013811;28;20761;-47
2021/11/16 06:33:10;;;;;;;29.10;20.23;;;12.80;59.60;;;;;;5014749;28;20243;-50
2021/11/16 06:35:35;;;;;;;32.07;19.23;;;12.80;59.50;;;;;;5012343;28;20563;-47
2021/11/16 06:38:02;;;;;;;29.93;17.53;;;12.80;59.60;;;;;;5014815;28;20221;-46
2021/11/16 06:40:27;;;;;;;34.73;22.00;;;12.60;59.40;;;;;;5013673;28;20230;-46
2021/11/16 06:42:54;;;;;;;28.67;19.77;;;12.60;59.30;;;;;;5014721;28;21306;-48
2021/11/16 06:45:20;;;;;;;29.10;18.67;;;12.70;59.50;;;;;;5013898;28;20186;-46
2021/11/16 06:47:46;;;;;;;27.50;16.87;;;12.70;59.30;;;;;;5014507;28;20433;-49
2021/11/16 06:50:12;;;;;;;24.57;16.40;;;12.60;59.10;;;;;;5013768;28;20194;-48
2021/11/16 06:52:38;;;;;;;27.70;17.13;;;12.50;59.20;;;;;;5014169;28;20197;-47
2021/11/16 06:55:05;;;;;;;32.10;18.50;;;12.50;59.40;;;;;;5014307;28;20440;-46
2021/11/16 06:57:33;;;;;;;25.30;17.10;;;12.50;59.30;;;;;;5013933;28;20200;-48
2021/11/16 06:59:58;;;;;;;24.33;16.27;;;12.60;59.10;;;;;;5013788;28;20433;-50
2021/11/16 07:02:25;;;;;;;28.30;17.43;;;12.60;59.00;;;;;;5012039;28;20482;-49
2021/11/16 07:04:51;;;;;;;26.43;17.20;;;12.70;59.10;;;;;;5013901;28;20564;-48
2021/11/16 07:07:17;;;;;;;26.77;16.60;;;12.70;59.10;;;;;;5013678;28;20429;-51
2021/11/16 07:09:43;;;;;;;28.37;17.33;;;12.70;59.40;;;;;;5012164;28;20269;-46
2021/11/16 07:12:19;;;;;;;26.37;17.60;;;12.70;59.60;;;;;;5013241;28;20198;-48
2021/11/16 07:14:45;;;;;;;28.60;17.83;;;12.70;59.70;;;;;;5013782;28;20467;-47
2021/11/16 07:17:15;;;;;;;27.13;16.50;;;12.70;59.50;;;;;;5012225;28;20511;-47
2021/11/16 07:19:44;;;;;;;23.53;15.87;;;12.70;59.20;;;;;;5013262;28;20441;-47
2021/11/16 07:22:16;;;;;;;23.77;16.07;;;12.70;59.10;;;;;;5013285;28;20901;-48
2021/11/16 07:24:43;;;;;;;24.87;15.37;;;12.70;58.60;;;;;;4996165;28;20467;-48
2021/11/16 07:27:09;;;;;;;24.70;15.30;;;12.70;58.40;;;;;;5011782;28;20433;-48
2021/11/16 07:29:38;;;;;;;23.20;15.70;;;12.70;58.30;;;;;;5013137;28;20794;-47
2021/11/16 07:32:06;;;;;;;23.63;16.93;;;12.70;58.20;;;;;;5013162;28;20445;-49
2021/11/16 07:34:33;;;;;;;23.93;16.57;;;12.60;57.90;;;;;;5013440;28;20476;-46
2021/11/16 07:37:06;;;;;;;23.37;15.00;;;12.70;57.90;;;;;;5012867;28;20433;-46
2021/11/16 07:40:04;;;;;;;23.87;13.27;;;12.70;58.40;;;;;;5013361;28;20479;-47
2021/11/16 07:42:33;;;;;;;17.67;12.00;;;12.60;57.90;;;;;;5013044;28;20433;-50
2021/11/16 07:45:11;;;;;;;19.80;13.63;;;12.60;57.90;;;;;;5013536;28;20457;-47
2021/11/16 07:47:43;;;;;;;22.07;15.17;;;12.50;58.20;;;;;;5012950;28;20803;-48
2021/11/16 07:50:14;;;;;;;20.90;13.00;;;12.50;58.30;;;;;;5012929;28;20433;-49
2021/11/16 07:52:39;;;;;;;18.90;13.40;;;12.50;58.10;;;;;;5013049;28;20779;-48
2021/11/16 07:55:06;;;;;;;17.50;11.90;;;12.50;57.90;;;;;;5011637;28;20440;-47
2021/11/16 07:57:44;;;;;;;18.40;13.47;;;12.40;57.70;;;;;;5012705;28;20213;-48
2021/11/16 08:00:22;;;;;;;16.90;12.27;;;12.50;57.60;;;;;;5012607;28;20512;-47
2021/11/16 08:02:52;;;;;;;18.13;12.27;;;12.60;57.60;;;;;;5012794;28;21227;-48
2021/11/16 08:05:41;;;;;;;16.37;12.30;;;12.50;57.80;;;;;;5012382;28;20943;-47
2021/11/16 08:08:18;;;;;;;21.60;13.37;;;12.40;57.90;;;;;;4995011;28;20504;-48
2021/11/16 08:10:47;;;;;;;17.70;11.73;;;12.40;58.00;;;;;;5012102;28;20433;-50
2021/11/16 08:13:16;;;;;;;17.90;13.33;;;12.30;58.00;;;;;;5012881;28;20510;-48
2021/11/16 08:15:43;;;;;;;19.63;12.17;;;12.20;58.20;;;;;;5011948;28;20524;-50
2021/11/16 08:18:14;;;;;;;22.07;13.67;;;12.20;58.00;;;;;;5012659;28;20955;-48
2021/11/16 08:20:41;;;;;;;19.77;12.30;;;12.30;57.90;;;;;;5010068;28;20498;-51
2021/11/16 08:23:08;;;;;;;20.93;14.50;;;12.30;57.80;;;;;;5012538;28;20484;-50
2021/11/16 08:25:36;;;;;;;18.83;11.30;;;12.40;57.80;;;;;;5011945;28;20437;-48
2021/11/16 08:28:04;;;;;;;18.07;13.63;;;12.30;57.40;;;;;;5012809;28;20436;-47
2021/11/16 08:30:34;;;;;;;16.43;12.93;;;12.40;57.20;;;;;;5011795;28;20425;-49
2021/11/16 08:33:01;;;;;;;17.90;12.87;;;12.40;57.20;;;;;;5013045;28;20792;-49
2021/11/16 08:35:28;;;;;;;16.90;12.90;;;12.30;56.90;;;;;;5011777;28;20452;-49
2021/11/16 08:38:00;;;;;;;18.87;13.30;;;12.30;57.40;;;;;;5012505;28;20468;-48
2021/11/16 08:40:29;;;;;;;18.00;13.10;;;12.20;57.40;;;;;;5011330;28;20560;-47
2021/11/16 08:43:06;;;;;;;15.23;12.00;;;12.30;57.30;;;;;;5012145;28;20515;-46
2021/11/16 08:45:37;;;;;;;17.07;12.63;;;12.40;57.20;;;;;;5010858;28;20440;-46
2021/11/16 08:48:21;;;;;;;19.40;11.67;;;12.50;57.10;;;;;;5010865;28;20462;-46
2021/11/16 08:51:12;;;;;;;15.57;11.90;;;12.60;57.10;;;;;;5011172;28;20429;-50
2021/11/16 08:53:40;;;;;;;16.17;11.73;;;12.60;56.80;;;;;;5011813;28;20436;-50
2021/11/16 08:56:15;;;;;;;20.93;13.23;;;12.70;56.80;;;;;;5011693;28;20921;-50
2021/11/16 08:58:41;;;;;;;16.60;11.87;;;12.80;56.80;;;;;;5011912;28;20447;-47
2021/11/16 09:01:08;;;;;;;15.90;11.47;;;12.80;56.60;;;;;;5011236;28;20425;-46
2021/11/16 09:03:43;;;;;;;18.40;11.90;;;12.80;56.30;;;;;;5011780;28;20233;-46
2021/11/16 09:06:21;;;;;;;16.23;11.60;;;12.70;56.30;;;;;;5011473;28;20539;-51
2021/11/16 09:09:11;;;;;;;16.47;12.10;;;12.70;56.30;;;;;;5011691;28;21099;-47
2021/11/16 09:11:37;;;;;;;14.83;10.57;;;12.70;55.90;;;;;;5011348;28;20456;-46
2021/11/16 09:14:14;;;;;;;17.93;12.40;;;12.80;55.60;;;;;;4992116;28;20498;-46
2021/11/16 09:16:41;;;;;;;14.10;11.07;;;12.80;55.70;;;;;;4993760;28;20535;-47
2021/11/16 09:19:07;;;;;;;17.07;11.00;;;12.80;55.80;;;;;;5011283;28;20844;-46
2021/11/16 09:21:38;;;;;;;15.60;11.70;;;12.80;55.70;;;;;;5011477;28;20451;-47
2021/11/16 09:24:16;;;;;;;14.33;10.97;;;12.70;55.70;;;;;;5011483;28;20972;-46
2021/11/16 09:29:14;;;;;;;15.83;12.07;;;12.80;55.70;;;;;;5011078;28;20987;-50
2021/11/16 09:31:55;;;;;;;17.07;11.43;;;12.80;55.70;;;;;;5010857;28;20449;-47
2021/11/16 09:34:36;;;;;;;14.73;11.10;;;12.80;55.70;;;;;;5011465;28;20429;-49
2021/11/16 09:37:08;;;;;;;21.07;11.63;;;12.80;55.80;;;;;;5010723;28;20413;-49
2021/11/16 09:39:39;;;;;;;15.23;11.73;;;12.80;55.80;;;;;;5011382;28;20496;-46
2021/11/16 09:42:07;;;;;;;19.43;12.70;;;12.80;55.80;;;;;;5009309;28;20460;-47
2021/11/16 09:44:41;;;;;;;14.77;10.37;;;12.80;55.70;;;;;;5011691;28;20565;-49
2021/11/16 09:47:09;;;;;;;17.77;12.00;;;12.90;55.60;;;;;;5010443;28;20451;-48
2021/11/16 09:49:41;;;;;;;15.50;11.40;;;13.00;55.50;;;;;;5011007;28;20433;-46
2021/11/16 09:52:11;;;;;;;16.23;10.90;;;13.00;55.30;;;;;;5011034;28;20452;-47
2021/11/16 09:54:59;;;;;;;14.40;11.00;;;12.90;55.30;;;;;;5011280;28;20988;-47
2021/11/16 09:57:40;;;;;;;19.13;10.93;;;12.90;55.30;;;;;;5010437;28;20432;-48
2021/11/16 10:00:11;;;;;;;17.23;10.70;;;12.90;55.20;;;;;;5010964;28;20439;-47
2021/11/16 10:02:40;;;;;;;14.07;10.60;;;12.80;55.20;;;;;;5010686;28;20456;-47
2021/11/16 10:05:19;;;;;;;14.70;8.27;;;12.90;55.30;;;;;;5011048;28;20808;-46
2021/11/16 10:07:51;;;;;;;14.00;8.30;;;12.90;54.90;;;;;;5008972;28;20630;-46
2021/11/16 10:10:18;;;;;;;12.30;9.53;;;12.80;54.90;;;;;;5008108;28;20468;-46
2021/11/16 10:13:07;;;;;;;15.47;11.23;;;12.90;55.00;;;;;;5007051;28;20444;-46
2021/11/16 10:15:36;;;;;;;15.00;11.10;;;12.90;55.30;;;;;;5007263;28;20448;-46
2021/11/16 10:18:03;;;;;;;15.80;11.30;;;12.80;55.40;;;;;;5008921;28;20467;-46
2021/11/16 10:20:33;;;;;;;15.27;10.47;;;12.90;55.40;;;;;;5007519;28;20446;-45
2021/11/16 10:23:02;;;;;;;18.10;12.77;;;12.90;55.20;;;;;;5009280;28;20496;-46
2021/11/16 10:25:32;;;;;;;14.93;11.10;;;12.80;55.00;;;;;;5008790;28;20451;-49
2021/11/16 10:28:06;;;;;;;16.87;11.57;;;12.70;55.30;;;;;;5008694;28;20452;-45
2021/11/16 10:30:32;;;;;;;17.37;11.80;;;12.60;55.50;;;;;;5006576;28;21272;-46
2021/11/16 10:33:08;;;;;;;17.83;12.63;;;12.50;55.50;;;;;;5009037;28;20433;-46
2021/11/16 10:35:40;;;;;;;17.43;11.80;;;12.60;56.00;;;;;;5006952;28;20440;-45
2021/11/16 10:38:08;;;;;;;15.47;11.20;;;12.50;55.60;;;;;;5006849;28;20433;-46
2021/11/16 10:40:36;;;;;;;15.43;10.83;;;12.40;55.50;;;;;;5007723;28;20437;-47
2021/11/16 10:43:03;;;;;;;18.07;10.53;;;12.30;55.70;;;;;;5010446;28;20980;-45
2021/11/16 10:45:32;;;;;;;17.50;11.43;;;12.50;55.70;;;;;;5006662;28;20437;-46
2021/11/16 10:48:01;;;;;;;18.23;11.90;;;12.50;55.70;;;;;;5006888;28;20479;-49
2021/11/16 10:50:30;;;;;;;18.00;11.87;;;12.50;55.80;;;;;;5007093;28;20460;-48
2021/11/16 10:53:06;;;;;;;18.53;11.20;;;12.40;56.00;;;;;;5006614;28;20464;-47
2021/11/16 10:55:55;;;;;;;16.33;10.20;;;12.20;55.90;;;;;;5007766;28;20498;-47
2021/11/16 10:58:28;;;;;;;16.07;11.10;;;12.20;56.00;;;;;;5008392;28;20444;-45
2021/11/16 11:01:07;;;;;;;18.13;10.40;;;12.30;56.10;;;;;;5008631;28;21180;-48
2021/11/16 11:03:45;;;;;;;15.83;9.80;;;12.20;55.90;;;;;;5005562;28;20497;-49
2021/11/16 11:06:20;;;;;;;14.80;10.00;;;12.30;55.80;;;;;;5005785;28;21018;-45
2021/11/16 11:08:52;;;;;;;15.00;10.13;;;12.40;55.80;;;;;;5010375;28;20538;-45
2021/11/16 11:11:34;;;;;;;12.77;9.40;;;12.50;55.50;;;;;;4994121;28;20441;-45
2021/11/16 11:14:08;;;;;;;16.00;10.40;;;12.50;55.50;;;;;;5011978;28;20547;-47
2021/11/16 11:16:38;;;;;;;14.67;10.47;;;12.40;55.60;;;;;;5010961;28;20448;-49
2021/11/16 11:19:06;;;;;;;18.00;11.67;;;12.20;55.70;;;;;;5012417;28;20515;-46
2021/11/16 11:21:38;;;;;;;18.80;10.97;;;12.20;56.00;;;;;;5005255;28;20493;-46
2021/11/16 11:24:28;;;;;;;16.57;10.77;;;12.20;55.90;;;;;;5012862;28;20885;-49
2021/11/16 11:27:01;;;;;;;16.60;10.97;;;12.20;55.80;;;;;;5012054;28;20445;-46
2021/11/16 11:32:09;;;;;;;18.77;10.90;;;12.20;56.00;;;;;;5011107;28;20441;-45
2021/11/16 11:34:39;;;;;;;17.83;11.97;;;12.30;56.00;;;;;;5012553;28;20448;-45
2021/11/16 11:37:12;;;;;;;17.87;11.23;;;12.20;55.90;;;;;;5012012;28;20985;-47
2021/11/16 11:39:39;;;;;;;15.97;10.40;;;12.20;55.60;;;;;;5006125;28;20797;-47
2021/11/16 11:42:09;;;;;;;18.20;11.60;;;12.20;55.60;;;;;;5010958;28;20475;-46
2021/11/16 11:44:45;;;;;;;21.20;11.17;;;12.30;55.90;;;;;;5011084;28;20592;-45
2021/11/16 11:47:21;;;;;;;18.63;11.60;;;12.30;55.70;;;;;;5010539;28;20440;-46
2021/11/16 11:49:46;;;;;;;19.80;11.57;;;12.40;55.70;;;;;;5012111;28;20436;-47
2021/11/16 11:52:12;;;;;;;20.93;11.90;;;12.40;55.80;;;;;;5011554;28;20487;-46
2021/11/16 11:54:37;;;;;;;18.00;12.10;;;12.40;56.00;;;;;;5012056;28;20610;-47
2021/11/16 11:57:03;;;;;;;18.40;11.60;;;12.40;55.90;;;;;;5010757;28;20191;-45
2021/11/16 11:59:29;;;;;;;19.37;11.97;;;12.40;55.80;;;;;;5010532;28;20668;-47
2021/11/16 12:01:56;;;;;;;21.70;12.40;;;12.40;55.80;;;;;;5010820;28;20248;-46
2021/11/16 12:04:22;;;;;;;22.80;12.30;;;12.40;55.70;;;;;;5011892;28;20670;-45
2021/11/16 12:06:49;;;;;;;17.50;12.00;;;12.50;55.50;;;;;;5010048;28;20483;-46
2021/11/16 12:09:16;;;;;;;20.63;12.00;;;12.60;55.50;;;;;;5011685;28;20481;-46
2021/11/16 12:11:45;;;;;;;24.73;11.87;;;12.60;55.30;;;;;;5003426;28;20495;-46
2021/11/16 12:14:44;;;;;;;18.67;11.77;;;12.50;55.90;;;;;;5012352;28;20487;-48
2021/11/16 12:17:13;;;;;;;17.50;11.13;;;12.50;55.30;;;;;;5008332;28;20452;-48
2021/11/16 12:19:48;;;;;;;16.50;10.30;;;12.50;55.30;;;;;;5011287;28;20433;-46
2021/11/16 12:22:23;;;;;;;16.53;10.27;;;12.40;55.30;;;;;;4993484;28;20444;-49
2021/11/16 12:24:50;;;;;;;17.50;11.00;;;12.40;55.80;;;;;;5012212;28;20511;-46
2021/11/16 12:27:21;;;;;;;15.87;10.30;;;12.50;55.50;;;;;;5011113;28;20787;-45
2021/11/16 12:29:49;;;;;;;20.03;11.80;;;12.60;55.30;;;;;;5013083;28;20433;-44
2021/11/16 12:32:31;;;;;;;15.80;9.90;;;12.70;55.00;;;;;;5011745;28;20520;-46
2021/11/16 12:35:15;;;;;;;13.40;8.30;;;12.80;54.80;;;;;;5009353;28;20441;-45
2021/11/16 12:37:43;;;;;;;15.00;9.70;;;12.70;54.60;;;;;;5012364;28;20448;-45
2021/11/16 12:40:33;;;;;;;14.90;9.20;;;12.60;54.90;;;;;;5011675;28;20432;-46
2021/11/16 12:43:21;;;;;;;14.30;9.70;;;12.60;54.90;;;;;;5002296;28;20477;-45
2021/11/16 12:45:56;;;;;;;11.43;8.47;;;12.60;54.90;;;;;;5012137;28;20976;-45
2021/11/16 12:48:49;;;;;;;15.33;9.67;;;12.60;54.90;;;;;;5011767;28;20437;-48
2021/11/16 12:51:20;;;;;;;13.73;8.70;;;12.40;55.30;;;;;;5011023;28;20806;-45
2021/11/16 12:53:51;;;;;;;14.37;9.70;;;12.50;55.30;;;;;;5000237;28;20453;-45
2021/11/16 12:56:18;;;;;;;13.30;8.50;;;12.60;55.10;;;;;;5007590;28;20516;-45
2021/11/16 12:58:55;;;;;;;15.13;9.17;;;12.70;55.00;;;;;;5010100;28;21007;-45